sensor_id;sensor_type;location;lat;lon;timestamp;P1;durP1;ratioP1;P2;durP2;ratioP2
60873;SDS011;46715;40.642;-7.920;2023-11-19T00:00:02;351.75;;;47.72;;
60873;SDS011;46715;40.642;-7.920;2023-11-19T00:02:08;285.98;;;46.42;;
60873;SDS011;46715;40.642;-7.920;2023-11-19T00:04:08;348.73;;;47.43;;
60873;SDS011;46715;40.642;-7.920;2023-11-19T00:06:09;418.77;;;56.67;;
60873;SDS011;46715;40.642;-7.920;2023-11-19T00:08:11;337.05;;;46.55;;
60873;SDS011;46715;40.642;-7.920;2023-11-19T00:10:13;284.10;;;43.00;;
60873;SDS011;46715;40.642;-7.920;2023-11-19T00:12:18;264.17;;;39.50;;
60873;SDS011;46715;40.642;-7.920;2023-11-19T00:14:19;225.95;;;36.42;;
60873;SDS011;46715;40.642;-7.920;2023-11-19T00:16:20;221.87;;;38.77;;
60873;SDS011;46715;40.642;-7.920;2023-11-19T00:18:21;223.83;;;36.07;;
60873;SDS011;46715;40.642;-7.920;2023-11-19T00:20:22;261.77;;;41.25;;
60873;SDS011;46715;40.642;-7.920;2023-11-19T00:22:23;211.90;;;36.05;;
60873;SDS011;46715;40.642;-7.920;2023-11-19T00:24:26;232.65;;;34.45;;
60873;SDS011;46715;40.642;-7.920;2023-11-19T00:26:26;253.27;;;32.87;;
60873;SDS011;46715;40.642;-7.920;2023-11-19T00:28:28;155.27;;;24.08;;
60873;SDS011;46715;40.642;-7.920;2023-11-19T00:30:29;142.60;;;20.85;;
60873;SDS011;46715;40.642;-7.920;2023-11-19T00:32:31;201.70;;;25.30;;
60873;SDS011;46715;40.642;-7.920;2023-11-19T00:34:34;120.15;;;22.58;;
60873;SDS011;46715;40.642;-7.920;2023-11-19T00:36:35;154.57;;;24.00;;
60873;SDS011;46715;40.642;-7.920;2023-11-19T00:38:37;147.73;;;22.98;;
60873;SDS011;46715;40.642;-7.920;2023-11-19T00:40:38;106.97;;;22.77;;
60873;SDS011;46715;40.642;-7.920;2023-11-19T00:42:38;156.33;;;24.17;;
60873;SDS011;46715;40.642;-7.920;2023-11-19T00:44:39;124.33;;;24.27;;
60873;SDS011;46715;40.642;-7.920;2023-11-19T00:46:41;148.32;;;24.50;;
60873;SDS011;46715;40.642;-7.920;2023-11-19T00:48:42;95.60;;;19.07;;
60873;SDS011;46715;40.642;-7.920;2023-11-19T00:50:42;98.27;;;17.83;;
60873;SDS011;46715;40.642;-7.920;2023-11-19T00:52:44;73.18;;;15.93;;
60873;SDS011;46715;40.642;-7.920;2023-11-19T00:54:45;84.53;;;17.73;;
60873;SDS011;46715;40.642;-7.920;2023-11-19T00:56:46;77.33;;;16.17;;
60873;SDS011;46715;40.642;-7.920;2023-11-19T00:58:47;81.97;;;17.77;;
60873;SDS011;46715;40.642;-7.920;2023-11-19T01:00:48;100.70;;;17.90;;
60873;SDS011;46715;40.642;-7.920;2023-11-19T01:02:48;70.60;;;14.93;;
60873;SDS011;46715;40.642;-7.920;2023-11-19T01:04:50;50.13;;;14.05;;
60873;SDS011;46715;40.642;-7.920;2023-11-19T01:06:51;51.27;;;15.37;;
60873;SDS011;46715;40.642;-7.920;2023-11-19T01:08:51;73.53;;;16.57;;
60873;SDS011;46715;40.642;-7.920;2023-11-19T01:10:53;40.70;;;15.50;;
60873;SDS011;46715;40.642;-7.920;2023-11-19T01:12:54;77.72;;;18.38;;
60873;SDS011;46715;40.642;-7.920;2023-11-19T01:14:55;50.97;;;16.07;;
60873;SDS011;46715;40.642;-7.920;2023-11-19T01:16:57;63.72;;;16.27;;
60873;SDS011;46715;40.642;-7.920;2023-11-19T01:18:58;66.80;;;18.38;;
60873;SDS011;46715;40.642;-7.920;2023-11-19T01:20:58;86.57;;;20.33;;
60873;SDS011;46715;40.642;-7.920;2023-11-19T01:22:59;36.93;;;15.93;;
60873;SDS011;46715;40.642;-7.920;2023-11-19T01:24:59;77.90;;;17.03;;
60873;SDS011;46715;40.642;-7.920;2023-11-19T01:27:00;54.80;;;16.23;;
60873;SDS011;46715;40.642;-7.920;2023-11-19T01:29:01;87.63;;;17.53;;
60873;SDS011;46715;40.642;-7.920;2023-11-19T01:31:01;78.10;;;18.37;;
60873;SDS011;46715;40.642;-7.920;2023-11-19T01:33:04;42.58;;;15.52;;
60873;SDS011;46715;40.642;-7.920;2023-11-19T01:35:05;67.05;;;18.05;;
60873;SDS011;46715;40.642;-7.920;2023-11-19T01:37:06;91.88;;;21.63;;
60873;SDS011;46715;40.642;-7.920;2023-11-19T01:39:07;91.97;;;18.47;;
60873;SDS011;46715;40.642;-7.920;2023-11-19T01:41:07;118.13;;;22.80;;
60873;SDS011;46715;40.642;-7.920;2023-11-19T01:43:09;186.75;;;26.90;;
60873;SDS011;46715;40.642;-7.920;2023-11-19T01:45:16;186.82;;;27.00;;
60873;SDS011;46715;40.642;-7.920;2023-11-19T01:47:22;115.55;;;22.52;;
60873;SDS011;46715;40.642;-7.920;2023-11-19T01:49:24;82.80;;;19.35;;
60873;SDS011;46715;40.642;-7.920;2023-11-19T01:51:32;60.63;;;17.20;;
60873;SDS011;46715;40.642;-7.920;2023-11-19T01:53:33;104.60;;;19.13;;
60873;SDS011;46715;40.642;-7.920;2023-11-19T01:55:35;104.57;;;18.42;;
60873;SDS011;46715;40.642;-7.920;2023-11-19T01:57:36;78.67;;;17.03;;
60873;SDS011;46715;40.642;-7.920;2023-11-19T01:59:38;94.85;;;20.85;;
60873;SDS011;46715;40.642;-7.920;2023-11-19T02:01:39;98.53;;;19.17;;
60873;SDS011;46715;40.642;-7.920;2023-11-19T02:03:40;170.73;;;21.42;;
60873;SDS011;46715;40.642;-7.920;2023-11-19T02:05:41;121.03;;;17.90;;
60873;SDS011;46715;40.642;-7.920;2023-11-19T02:07:42;135.02;;;20.60;;
60873;SDS011;46715;40.642;-7.920;2023-11-19T02:09:43;135.70;;;20.83;;
60873;SDS011;46715;40.642;-7.920;2023-11-19T02:11:45;123.80;;;21.25;;
60873;SDS011;46715;40.642;-7.920;2023-11-19T02:13:49;118.53;;;21.17;;
60873;SDS011;46715;40.642;-7.920;2023-11-19T02:15:50;114.93;;;21.83;;
60873;SDS011;46715;40.642;-7.920;2023-11-19T02:17:52;112.03;;;21.90;;
60873;SDS011;46715;40.642;-7.920;2023-11-19T02:19:53;79.67;;;20.47;;
60873;SDS011;46715;40.642;-7.920;2023-11-19T02:21:54;73.40;;;18.05;;
60873;SDS011;46715;40.642;-7.920;2023-11-19T02:23:56;81.95;;;21.67;;
60873;SDS011;46715;40.642;-7.920;2023-11-19T02:28:02;117.32;;;23.95;;
60873;SDS011;46715;40.642;-7.920;2023-11-19T02:30:05;338.00;;;37.33;;
60873;SDS011;46715;40.642;-7.920;2023-11-19T02:32:08;351.83;;;35.20;;
60873;SDS011;46715;40.642;-7.920;2023-11-19T02:34:10;116.53;;;27.33;;
60873;SDS011;46715;40.642;-7.920;2023-11-19T02:36:13;78.97;;;23.90;;
60873;SDS011;46715;40.642;-7.920;2023-11-19T02:38:13;139.17;;;26.60;;
60873;SDS011;46715;40.642;-7.920;2023-11-19T02:40:14;88.05;;;23.25;;
60873;SDS011;46715;40.642;-7.920;2023-11-19T02:42:15;146.53;;;29.63;;
60873;SDS011;46715;40.642;-7.920;2023-11-19T02:44:17;139.25;;;27.40;;
60873;SDS011;46715;40.642;-7.920;2023-11-19T02:46:17;98.43;;;26.60;;
60873;SDS011;46715;40.642;-7.920;2023-11-19T02:50:21;172.80;;;27.48;;
60873;SDS011;46715;40.642;-7.920;2023-11-19T02:52:31;156.70;;;27.50;;
60873;SDS011;46715;40.642;-7.920;2023-11-19T02:54:37;110.45;;;26.08;;
60873;SDS011;46715;40.642;-7.920;2023-11-19T02:56:41;54.60;;;23.57;;
60873;SDS011;46715;40.642;-7.920;2023-11-19T02:58:43;57.08;;;23.48;;
60873;SDS011;46715;40.642;-7.920;2023-11-19T03:00:45;55.30;;;22.13;;
60873;SDS011;46715;40.642;-7.920;2023-11-19T03:02:54;39.72;;;19.38;;
60873;SDS011;46715;40.642;-7.920;2023-11-19T03:05:05;51.58;;;21.90;;
60873;SDS011;46715;40.642;-7.920;2023-11-19T03:07:07;58.03;;;20.50;;
60873;SDS011;46715;40.642;-7.920;2023-11-19T03:09:08;107.10;;;23.27;;
60873;SDS011;46715;40.642;-7.920;2023-11-19T03:11:10;67.13;;;22.17;;
60873;SDS011;46715;40.642;-7.920;2023-11-19T03:13:12;130.63;;;26.67;;
60873;SDS011;46715;40.642;-7.920;2023-11-19T03:15:19;125.55;;;24.40;;
60873;SDS011;46715;40.642;-7.920;2023-11-19T03:17:21;97.28;;;22.80;;
60873;SDS011;46715;40.642;-7.920;2023-11-19T03:19:22;154.17;;;24.47;;
60873;SDS011;46715;40.642;-7.920;2023-11-19T03:21:28;93.60;;;24.33;;
60873;SDS011;46715;40.642;-7.920;2023-11-19T03:23:29;96.70;;;24.38;;
60873;SDS011;46715;40.642;-7.920;2023-11-19T03:25:31;93.75;;;22.00;;
60873;SDS011;46715;40.642;-7.920;2023-11-19T03:27:36;70.07;;;21.10;;
60873;SDS011;46715;40.642;-7.920;2023-11-19T03:29:39;71.05;;;22.50;;
60873;SDS011;46715;40.642;-7.920;2023-11-19T03:31:42;112.77;;;23.50;;
60873;SDS011;46715;40.642;-7.920;2023-11-19T03:33:43;102.22;;;22.23;;
60873;SDS011;46715;40.642;-7.920;2023-11-19T03:35:44;91.00;;;21.87;;
60873;SDS011;46715;40.642;-7.920;2023-11-19T03:37:44;103.40;;;22.97;;
60873;SDS011;46715;40.642;-7.920;2023-11-19T03:39:46;108.25;;;23.35;;
60873;SDS011;46715;40.642;-7.920;2023-11-19T03:41:47;92.27;;;23.40;;
60873;SDS011;46715;40.642;-7.920;2023-11-19T03:43:48;93.03;;;21.17;;
60873;SDS011;46715;40.642;-7.920;2023-11-19T03:45:48;136.30;;;23.97;;
60873;SDS011;46715;40.642;-7.920;2023-11-19T03:47:49;116.73;;;23.30;;
60873;SDS011;46715;40.642;-7.920;2023-11-19T03:49:50;119.53;;;23.48;;
60873;SDS011;46715;40.642;-7.920;2023-11-19T03:51:51;90.18;;;23.45;;
60873;SDS011;46715;40.642;-7.920;2023-11-19T03:53:52;77.70;;;22.07;;
60873;SDS011;46715;40.642;-7.920;2023-11-19T03:55:53;114.87;;;22.77;;
60873;SDS011;46715;40.642;-7.920;2023-11-19T03:57:53;102.33;;;24.00;;
60873;SDS011;46715;40.642;-7.920;2023-11-19T03:59:54;112.73;;;23.23;;
60873;SDS011;46715;40.642;-7.920;2023-11-19T04:01:55;99.95;;;25.30;;
60873;SDS011;46715;40.642;-7.920;2023-11-19T04:03:56;104.90;;;23.90;;
60873;SDS011;46715;40.642;-7.920;2023-11-19T04:05:57;113.78;;;26.27;;
60873;SDS011;46715;40.642;-7.920;2023-11-19T04:07:59;84.90;;;24.23;;
60873;SDS011;46715;40.642;-7.920;2023-11-19T04:10:00;122.10;;;25.80;;
60873;SDS011;46715;40.642;-7.920;2023-11-19T04:12:00;131.43;;;23.70;;
60873;SDS011;46715;40.642;-7.920;2023-11-19T04:14:01;133.48;;;21.63;;
60873;SDS011;46715;40.642;-7.920;2023-11-19T04:16:02;123.90;;;22.27;;
60873;SDS011;46715;40.642;-7.920;2023-11-19T04:18:03;124.03;;;23.48;;
60873;SDS011;46715;40.642;-7.920;2023-11-19T04:20:04;120.20;;;20.30;;
60873;SDS011;46715;40.642;-7.920;2023-11-19T04:22:06;104.35;;;18.58;;
60873;SDS011;46715;40.642;-7.920;2023-11-19T04:24:08;126.70;;;22.77;;
60873;SDS011;46715;40.642;-7.920;2023-11-19T04:26:13;78.47;;;17.67;;
60873;SDS011;46715;40.642;-7.920;2023-11-19T04:28:14;98.03;;;20.47;;
60873;SDS011;46715;40.642;-7.920;2023-11-19T04:30:15;79.77;;;19.13;;
60873;SDS011;46715;40.642;-7.920;2023-11-19T04:32:17;98.15;;;20.50;;
60873;SDS011;46715;40.642;-7.920;2023-11-19T04:34:17;115.80;;;21.00;;
60873;SDS011;46715;40.642;-7.920;2023-11-19T04:36:18;104.83;;;19.47;;
60873;SDS011;46715;40.642;-7.920;2023-11-19T04:38:19;88.75;;;18.95;;
60873;SDS011;46715;40.642;-7.920;2023-11-19T04:40:20;77.40;;;19.97;;
60873;SDS011;46715;40.642;-7.920;2023-11-19T04:42:23;65.55;;;19.33;;
60873;SDS011;46715;40.642;-7.920;2023-11-19T04:44:24;101.25;;;20.40;;
60873;SDS011;46715;40.642;-7.920;2023-11-19T04:46:25;121.73;;;21.83;;
60873;SDS011;46715;40.642;-7.920;2023-11-19T04:48:25;56.03;;;17.40;;
60873;SDS011;46715;40.642;-7.920;2023-11-19T04:50:26;58.43;;;18.77;;
60873;SDS011;46715;40.642;-7.920;2023-11-19T04:52:27;61.83;;;16.08;;
60873;SDS011;46715;40.642;-7.920;2023-11-19T04:54:28;76.33;;;16.37;;
60873;SDS011;46715;40.642;-7.920;2023-11-19T04:56:28;52.30;;;15.50;;
60873;SDS011;46715;40.642;-7.920;2023-11-19T04:58:29;84.43;;;16.80;;
60873;SDS011;46715;40.642;-7.920;2023-11-19T05:00:30;65.93;;;16.23;;
60873;SDS011;46715;40.642;-7.920;2023-11-19T05:02:31;36.00;;;15.13;;
60873;SDS011;46715;40.642;-7.920;2023-11-19T05:04:31;58.23;;;15.77;;
60873;SDS011;46715;40.642;-7.920;2023-11-19T05:06:32;50.07;;;14.80;;
60873;SDS011;46715;40.642;-7.920;2023-11-19T05:08:33;53.97;;;14.17;;
60873;SDS011;46715;40.642;-7.920;2023-11-19T05:10:33;45.90;;;16.10;;
60873;SDS011;46715;40.642;-7.920;2023-11-19T05:12:34;38.30;;;14.33;;
60873;SDS011;46715;40.642;-7.920;2023-11-19T05:14:35;48.40;;;13.97;;
60873;SDS011;46715;40.642;-7.920;2023-11-19T05:16:37;50.60;;;15.67;;
60873;SDS011;46715;40.642;-7.920;2023-11-19T05:18:40;31.70;;;13.52;;
60873;SDS011;46715;40.642;-7.920;2023-11-19T05:20:41;46.83;;;13.15;;
60873;SDS011;46715;40.642;-7.920;2023-11-19T05:22:42;30.50;;;12.80;;
60873;SDS011;46715;40.642;-7.920;2023-11-19T05:24:43;44.80;;;13.95;;
60873;SDS011;46715;40.642;-7.920;2023-11-19T05:26:44;52.28;;;13.75;;
60873;SDS011;46715;40.642;-7.920;2023-11-19T05:28:45;114.40;;;16.07;;
60873;SDS011;46715;40.642;-7.920;2023-11-19T05:30:46;80.87;;;15.53;;
60873;SDS011;46715;40.642;-7.920;2023-11-19T05:32:46;72.17;;;14.73;;
60873;SDS011;46715;40.642;-7.920;2023-11-19T05:34:47;68.27;;;15.20;;
60873;SDS011;46715;40.642;-7.920;2023-11-19T05:36:48;84.67;;;15.50;;
60873;SDS011;46715;40.642;-7.920;2023-11-19T05:38:50;109.55;;;17.73;;
60873;SDS011;46715;40.642;-7.920;2023-11-19T05:40:50;90.53;;;16.13;;
60873;SDS011;46715;40.642;-7.920;2023-11-19T05:42:51;127.00;;;17.23;;
60873;SDS011;46715;40.642;-7.920;2023-11-19T05:44:51;60.53;;;14.57;;
60873;SDS011;46715;40.642;-7.920;2023-11-19T05:46:52;131.23;;;17.38;;
60873;SDS011;46715;40.642;-7.920;2023-11-19T05:48:53;135.03;;;16.70;;
60873;SDS011;46715;40.642;-7.920;2023-11-19T05:50:54;107.83;;;16.27;;
60873;SDS011;46715;40.642;-7.920;2023-11-19T05:52:55;114.90;;;17.17;;
60873;SDS011;46715;40.642;-7.920;2023-11-19T05:54:55;86.00;;;16.10;;
60873;SDS011;46715;40.642;-7.920;2023-11-19T05:56:56;108.10;;;17.43;;
60873;SDS011;46715;40.642;-7.920;2023-11-19T05:58:58;120.03;;;18.02;;
60873;SDS011;46715;40.642;-7.920;2023-11-19T06:01:01;119.25;;;17.15;;
60873;SDS011;46715;40.642;-7.920;2023-11-19T06:03:03;106.15;;;15.50;;
60873;SDS011;46715;40.642;-7.920;2023-11-19T06:05:04;85.63;;;15.30;;
60873;SDS011;46715;40.642;-7.920;2023-11-19T06:07:06;68.03;;;13.05;;
60873;SDS011;46715;40.642;-7.920;2023-11-19T06:09:07;43.93;;;12.90;;
60873;SDS011;46715;40.642;-7.920;2023-11-19T06:11:09;58.58;;;12.55;;
60873;SDS011;46715;40.642;-7.920;2023-11-19T06:13:14;87.53;;;14.23;;
60873;SDS011;46715;40.642;-7.920;2023-11-19T06:15:16;75.45;;;17.58;;
60873;SDS011;46715;40.642;-7.920;2023-11-19T06:17:16;103.77;;;14.97;;
60873;SDS011;46715;40.642;-7.920;2023-11-19T06:19:17;142.90;;;17.43;;
60873;SDS011;46715;40.642;-7.920;2023-11-19T06:21:17;104.37;;;15.93;;
60873;SDS011;46715;40.642;-7.920;2023-11-19T06:23:18;113.10;;;17.50;;
60873;SDS011;46715;40.642;-7.920;2023-11-19T06:25:19;107.80;;;17.83;;
60873;SDS011;46715;40.642;-7.920;2023-11-19T06:27:21;123.50;;;19.93;;
60873;SDS011;46715;40.642;-7.920;2023-11-19T06:29:22;123.07;;;18.58;;
60873;SDS011;46715;40.642;-7.920;2023-11-19T06:31:23;106.30;;;16.83;;
60873;SDS011;46715;40.642;-7.920;2023-11-19T06:33:24;200.67;;;22.97;;
60873;SDS011;46715;40.642;-7.920;2023-11-19T06:35:24;93.40;;;16.45;;
60873;SDS011;46715;40.642;-7.920;2023-11-19T06:37:25;100.73;;;16.77;;
60873;SDS011;46715;40.642;-7.920;2023-11-19T06:41:27;132.52;;;19.15;;
60873;SDS011;46715;40.642;-7.920;2023-11-19T06:43:29;133.40;;;19.15;;
60873;SDS011;46715;40.642;-7.920;2023-11-19T06:45:30;238.10;;;26.43;;
60873;SDS011;46715;40.642;-7.920;2023-11-19T06:47:30;219.47;;;25.77;;
60873;SDS011;46715;40.642;-7.920;2023-11-19T06:49:31;157.87;;;20.80;;
60873;SDS011;46715;40.642;-7.920;2023-11-19T06:51:32;151.00;;;17.53;;
60873;SDS011;46715;40.642;-7.920;2023-11-19T06:53:33;103.60;;;17.47;;
60873;SDS011;46715;40.642;-7.920;2023-11-19T06:55:33;99.30;;;17.00;;
60873;SDS011;46715;40.642;-7.920;2023-11-19T06:57:34;215.33;;;24.27;;
60873;SDS011;46715;40.642;-7.920;2023-11-19T06:59:35;143.83;;;20.47;;
60873;SDS011;46715;40.642;-7.920;2023-11-19T07:01:35;203.70;;;22.03;;
60873;SDS011;46715;40.642;-7.920;2023-11-19T07:03:36;192.23;;;22.48;;
60873;SDS011;46715;40.642;-7.920;2023-11-19T07:05:37;134.07;;;19.93;;
60873;SDS011;46715;40.642;-7.920;2023-11-19T07:07:40;148.00;;;19.70;;
60873;SDS011;46715;40.642;-7.920;2023-11-19T07:09:41;112.30;;;15.97;;
60873;SDS011;46715;40.642;-7.920;2023-11-19T07:11:45;90.35;;;16.40;;
60873;SDS011;46715;40.642;-7.920;2023-11-19T07:13:46;136.03;;;18.67;;
60873;SDS011;46715;40.642;-7.920;2023-11-19T07:15:47;180.23;;;22.00;;
60873;SDS011;46715;40.642;-7.920;2023-11-19T07:17:48;130.48;;;18.45;;
60873;SDS011;46715;40.642;-7.920;2023-11-19T07:19:49;121.57;;;17.60;;
60873;SDS011;46715;40.642;-7.920;2023-11-19T07:21:50;131.13;;;19.00;;
60873;SDS011;46715;40.642;-7.920;2023-11-19T07:23:51;60.60;;;13.63;;
60873;SDS011;46715;40.642;-7.920;2023-11-19T07:25:52;119.60;;;17.83;;
60873;SDS011;46715;40.642;-7.920;2023-11-19T07:27:53;187.75;;;22.98;;
60873;SDS011;46715;40.642;-7.920;2023-11-19T07:29:54;108.43;;;17.80;;
60873;SDS011;46715;40.642;-7.920;2023-11-19T07:31:55;123.73;;;19.63;;
60873;SDS011;46715;40.642;-7.920;2023-11-19T07:33:56;97.63;;;18.57;;
60873;SDS011;46715;40.642;-7.920;2023-11-19T07:35:56;75.37;;;16.63;;
60873;SDS011;46715;40.642;-7.920;2023-11-19T07:37:57;62.27;;;15.83;;
60873;SDS011;46715;40.642;-7.920;2023-11-19T07:39:58;39.42;;;14.77;;
60873;SDS011;46715;40.642;-7.920;2023-11-19T07:41:59;47.07;;;15.10;;
60873;SDS011;46715;40.642;-7.920;2023-11-19T07:44:00;52.47;;;15.60;;
60873;SDS011;46715;40.642;-7.920;2023-11-19T07:46:01;46.50;;;13.17;;
60873;SDS011;46715;40.642;-7.920;2023-11-19T07:48:04;38.17;;;13.48;;
60873;SDS011;46715;40.642;-7.920;2023-11-19T07:50:06;33.17;;;13.38;;
60873;SDS011;46715;40.642;-7.920;2023-11-19T07:52:07;36.95;;;13.15;;
60873;SDS011;46715;40.642;-7.920;2023-11-19T07:54:08;35.70;;;12.73;;
60873;SDS011;46715;40.642;-7.920;2023-11-19T07:56:09;34.80;;;13.97;;
60873;SDS011;46715;40.642;-7.920;2023-11-19T07:58:10;36.33;;;12.88;;
60873;SDS011;46715;40.642;-7.920;2023-11-19T08:00:12;34.28;;;12.00;;
60873;SDS011;46715;40.642;-7.920;2023-11-19T08:02:13;30.55;;;12.07;;
60873;SDS011;46715;40.642;-7.920;2023-11-19T08:04:14;27.80;;;12.63;;
60873;SDS011;46715;40.642;-7.920;2023-11-19T08:06:15;25.87;;;12.23;;
60873;SDS011;46715;40.642;-7.920;2023-11-19T08:08:16;22.40;;;11.93;;
60873;SDS011;46715;40.642;-7.920;2023-11-19T08:10:17;24.67;;;11.90;;
60873;SDS011;46715;40.642;-7.920;2023-11-19T08:12:18;20.97;;;12.03;;
60873;SDS011;46715;40.642;-7.920;2023-11-19T08:14:18;42.63;;;12.60;;
60873;SDS011;46715;40.642;-7.920;2023-11-19T08:16:19;34.60;;;11.57;;
60873;SDS011;46715;40.642;-7.920;2023-11-19T08:18:20;31.50;;;11.90;;
60873;SDS011;46715;40.642;-7.920;2023-11-19T08:20:20;33.07;;;12.03;;
60873;SDS011;46715;40.642;-7.920;2023-11-19T08:22:21;23.97;;;10.87;;
60873;SDS011;46715;40.642;-7.920;2023-11-19T08:24:22;40.03;;;11.85;;
60873;SDS011;46715;40.642;-7.920;2023-11-19T08:26:23;28.63;;;11.27;;
60873;SDS011;46715;40.642;-7.920;2023-11-19T08:28:24;40.07;;;10.83;;
60873;SDS011;46715;40.642;-7.920;2023-11-19T08:30:24;26.53;;;10.37;;
60873;SDS011;46715;40.642;-7.920;2023-11-19T08:32:25;22.80;;;9.33;;
60873;SDS011;46715;40.642;-7.920;2023-11-19T08:34:27;12.85;;;8.43;;
60873;SDS011;46715;40.642;-7.920;2023-11-19T08:36:27;10.50;;;8.63;;
60873;SDS011;46715;40.642;-7.920;2023-11-19T08:38:28;10.27;;;8.07;;
60873;SDS011;46715;40.642;-7.920;2023-11-19T08:40:29;11.23;;;7.33;;
60873;SDS011;46715;40.642;-7.920;2023-11-19T08:42:30;7.50;;;6.80;;
60873;SDS011;46715;40.642;-7.920;2023-11-19T08:44:31;7.68;;;6.88;;
60873;SDS011;46715;40.642;-7.920;2023-11-19T08:46:32;6.78;;;6.05;;
60873;SDS011;46715;40.642;-7.920;2023-11-19T08:48:32;6.90;;;6.20;;
60873;SDS011;46715;40.642;-7.920;2023-11-19T08:50:33;7.07;;;6.17;;
60873;SDS011;46715;40.642;-7.920;2023-11-19T08:52:34;6.88;;;6.13;;
60873;SDS011;46715;40.642;-7.920;2023-11-19T08:54:34;6.80;;;5.38;;
60873;SDS011;46715;40.642;-7.920;2023-11-19T08:58:37;7.22;;;5.55;;
60873;SDS011;46715;40.642;-7.920;2023-11-19T09:00:37;8.47;;;6.57;;
60873;SDS011;46715;40.642;-7.920;2023-11-19T09:02:38;8.83;;;6.73;;
60873;SDS011;46715;40.642;-7.920;2023-11-19T09:04:39;7.73;;;6.47;;
60873;SDS011;46715;40.642;-7.920;2023-11-19T09:06:39;9.70;;;7.83;;
60873;SDS011;46715;40.642;-7.920;2023-11-19T09:08:41;7.78;;;7.05;;
60873;SDS011;46715;40.642;-7.920;2023-11-19T09:10:42;8.18;;;7.38;;
60873;SDS011;46715;40.642;-7.920;2023-11-19T09:12:43;11.57;;;8.67;;
60873;SDS011;46715;40.642;-7.920;2023-11-19T09:14:44;9.23;;;7.63;;
60873;SDS011;46715;40.642;-7.920;2023-11-19T09:16:46;9.68;;;8.63;;
60873;SDS011;46715;40.642;-7.920;2023-11-19T09:18:46;8.97;;;8.07;;
60873;SDS011;46715;40.642;-7.920;2023-11-19T09:20:47;13.40;;;9.40;;
60873;SDS011;46715;40.642;-7.920;2023-11-19T09:22:47;12.23;;;10.27;;
60873;SDS011;46715;40.642;-7.920;2023-11-19T09:24:48;11.73;;;10.53;;
60873;SDS011;46715;40.642;-7.920;2023-11-19T09:26:49;11.60;;;10.37;;
60873;SDS011;46715;40.642;-7.920;2023-11-19T09:28:53;11.93;;;10.25;;
60873;SDS011;46715;40.642;-7.920;2023-11-19T09:30:54;12.87;;;11.47;;
60873;SDS011;46715;40.642;-7.920;2023-11-19T09:32:54;12.30;;;10.70;;
60873;SDS011;46715;40.642;-7.920;2023-11-19T09:34:55;16.13;;;11.90;;
60873;SDS011;46715;40.642;-7.920;2023-11-19T09:36:56;14.57;;;11.17;;
60873;SDS011;46715;40.642;-7.920;2023-11-19T09:38:57;12.50;;;10.70;;
60873;SDS011;46715;40.642;-7.920;2023-11-19T09:40:58;12.37;;;11.03;;
60873;SDS011;46715;40.642;-7.920;2023-11-19T09:43:03;13.40;;;11.57;;
60873;SDS011;46715;40.642;-7.920;2023-11-19T09:45:04;13.47;;;11.63;;
60873;SDS011;46715;40.642;-7.920;2023-11-19T09:47:12;13.48;;;10.77;;
60873;SDS011;46715;40.642;-7.920;2023-11-19T09:49:17;11.48;;;10.27;;
60873;SDS011;46715;40.642;-7.920;2023-11-19T09:51:24;11.52;;;9.93;;
60873;SDS011;46715;40.642;-7.920;2023-11-19T09:53:24;9.63;;;8.60;;
60873;SDS011;46715;40.642;-7.920;2023-11-19T09:55:25;14.07;;;8.57;;
60873;SDS011;46715;40.642;-7.920;2023-11-19T09:57:26;14.85;;;9.32;;
60873;SDS011;46715;40.642;-7.920;2023-11-19T09:59:31;11.65;;;9.63;;
60873;SDS011;46715;40.642;-7.920;2023-11-19T10:01:32;10.30;;;9.20;;
60873;SDS011;46715;40.642;-7.920;2023-11-19T10:03:34;10.63;;;8.43;;
60873;SDS011;46715;40.642;-7.920;2023-11-19T10:05:38;9.88;;;8.88;;
60873;SDS011;46715;40.642;-7.920;2023-11-19T10:07:39;10.90;;;9.02;;
60873;SDS011;46715;40.642;-7.920;2023-11-19T10:09:39;11.03;;;9.27;;
60873;SDS011;46715;40.642;-7.920;2023-11-19T10:11:40;11.27;;;9.77;;
60873;SDS011;46715;40.642;-7.920;2023-11-19T10:13:41;12.18;;;10.07;;
60873;SDS011;46715;40.642;-7.920;2023-11-19T10:15:43;10.88;;;9.10;;
60873;SDS011;46715;40.642;-7.920;2023-11-19T10:17:47;10.13;;;9.07;;
60873;SDS011;46715;40.642;-7.920;2023-11-19T10:19:48;11.90;;;9.73;;
60873;SDS011;46715;40.642;-7.920;2023-11-19T10:21:49;12.77;;;9.60;;
60873;SDS011;46715;40.642;-7.920;2023-11-19T10:23:56;12.80;;;10.07;;
60873;SDS011;46715;40.642;-7.920;2023-11-19T10:26:03;12.73;;;10.68;;
60873;SDS011;46715;40.642;-7.920;2023-11-19T10:28:07;12.50;;;9.75;;
60873;SDS011;46715;40.642;-7.920;2023-11-19T10:30:07;13.30;;;9.83;;
60873;SDS011;46715;40.642;-7.920;2023-11-19T10:32:11;12.38;;;10.52;;
60873;SDS011;46715;40.642;-7.920;2023-11-19T10:34:25;13.63;;;9.98;;
60873;SDS011;46715;40.642;-7.920;2023-11-19T10:36:39;12.05;;;10.05;;
60873;SDS011;46715;40.642;-7.920;2023-11-19T10:38:52;11.90;;;8.93;;
60873;SDS011;46715;40.642;-7.920;2023-11-19T10:40:54;10.48;;;9.38;;
60873;SDS011;46715;40.642;-7.920;2023-11-19T10:43:02;11.43;;;9.07;;
60873;SDS011;46715;40.642;-7.920;2023-11-19T10:45:03;9.43;;;8.43;;
60873;SDS011;46715;40.642;-7.920;2023-11-19T10:47:05;11.85;;;9.30;;
60873;SDS011;46715;40.642;-7.920;2023-11-19T10:49:08;9.95;;;8.32;;
60873;SDS011;46715;40.642;-7.920;2023-11-19T10:51:09;15.30;;;8.48;;
60873;SDS011;46715;40.642;-7.920;2023-11-19T10:53:12;10.05;;;8.57;;
60873;SDS011;46715;40.642;-7.920;2023-11-19T10:55:13;12.48;;;8.75;;
60873;SDS011;46715;40.642;-7.920;2023-11-19T10:57:19;10.65;;;8.98;;
60873;SDS011;46715;40.642;-7.920;2023-11-19T10:59:23;12.50;;;10.15;;
60873;SDS011;46715;40.642;-7.920;2023-11-19T11:01:32;12.88;;;9.68;;
60873;SDS011;46715;40.642;-7.920;2023-11-19T11:03:44;14.77;;;7.93;;
60873;SDS011;46715;40.642;-7.920;2023-11-19T11:05:46;11.52;;;8.18;;
60873;SDS011;46715;40.642;-7.920;2023-11-19T11:07:48;9.70;;;8.48;;
60873;SDS011;46715;40.642;-7.920;2023-11-19T11:09:52;10.00;;;8.45;;
60873;SDS011;46715;40.642;-7.920;2023-11-19T11:11:53;8.75;;;7.88;;
60873;SDS011;46715;40.642;-7.920;2023-11-19T11:13:57;10.73;;;8.70;;
60873;SDS011;46715;40.642;-7.920;2023-11-19T11:16:02;9.57;;;7.78;;
60873;SDS011;46715;40.642;-7.920;2023-11-19T11:18:07;10.95;;;8.65;;
60873;SDS011;46715;40.642;-7.920;2023-11-19T11:20:09;9.77;;;8.02;;
60873;SDS011;46715;40.642;-7.920;2023-11-19T11:22:11;10.40;;;7.15;;
60873;SDS011;46715;40.642;-7.920;2023-11-19T11:24:34;8.43;;;6.28;;
60873;SDS011;46715;40.642;-7.920;2023-11-19T11:29:22;8.05;;;6.20;;
60873;SDS011;46715;40.642;-7.920;2023-11-19T11:36:29;6.20;;;5.25;;
60873;SDS011;46715;40.642;-7.920;2023-11-19T11:38:36;6.30;;;5.05;;
60873;SDS011;46715;40.642;-7.920;2023-11-19T11:40:40;6.93;;;4.95;;
60873;SDS011;46715;40.642;-7.920;2023-11-19T11:42:41;8.48;;;5.30;;
60873;SDS011;46715;40.642;-7.920;2023-11-19T11:47:13;5.63;;;4.57;;
60873;SDS011;46715;40.642;-7.920;2023-11-19T11:49:13;8.53;;;4.70;;
60873;SDS011;46715;40.642;-7.920;2023-11-19T11:51:14;11.57;;;8.73;;
60873;SDS011;46715;40.642;-7.920;2023-11-19T11:53:16;12.90;;;9.05;;
60873;SDS011;46715;40.642;-7.920;2023-11-19T11:55:18;11.57;;;9.43;;
60873;SDS011;46715;40.642;-7.920;2023-11-19T11:57:18;10.27;;;8.53;;
60873;SDS011;46715;40.642;-7.920;2023-11-19T11:59:19;12.17;;;8.70;;